Time;durP1;ratioP1;P1;durP2;ratioP2;P2;SDS_P1;SDS_P2;PMS_P1;PMS_P2;Temp;Humidity;BMP_temperature;BMP_pressure;BME280_temperature;BME280_humidity;BME280_pressure;Samples;Min_cycle;Max_cycle;Signal;HPM_P1;HPM_P2
2021/06/13 00:01:42;;;;;;;4.22;3.92;;;;;;;;;;5048881;28;20403;-71
2021/06/13 00:04:08;;;;;;;4.47;3.47;;;;;;;;;;5066905;28;20048;-71
2021/06/13 00:06:34;;;;;;;3.50;3.20;;;;;;;;;;5067851;28;20060;-71
2021/06/13 00:09:00;;;;;;;4.40;4.00;;;;;;;;;;5066899;28;20052;-71
2021/06/13 00:11:26;;;;;;;3.88;3.50;;;;;;;;;;5067326;28;20147;-71
2021/06/13 00:13:52;;;;;;;3.88;3.47;;;;;;;;;;5066669;28;20538;-71
2021/06/13 00:16:19;;;;;;;3.60;3.38;;;;;;;;;;5067704;28;20080;-71
2021/06/13 00:18:45;;;;;;;4.38;3.97;;;;;;;;;;5068032;28;20056;-71
2021/06/13 00:21:13;;;;;;;4.55;4.20;;;;;;;;;;5067276;28;20055;-71
2021/06/13 00:23:40;;;;;;;3.42;3.13;;;;;;;;;;5066515;28;20052;-71
2021/06/13 00:26:06;;;;;;;4.80;4.40;;;;;;;;;;5067241;28;20135;-71
2021/06/13 00:28:32;;;;;;;4.13;3.78;;;;;;;;;;5067992;28;20101;-71
2021/06/13 00:30:59;;;;;;;3.90;3.47;;;;;;;;;;5066168;28;20063;-71
2021/06/13 00:33:25;;;;;;;4.70;4.30;;;;;;;;;;5066571;28;20059;-71
2021/06/13 00:35:51;;;;;;;3.80;3.50;;;;;;;;;;5066692;28;20165;-71
2021/06/13 00:38:17;;;;;;;4.05;3.75;;;;;;;;;;5067607;28;20040;-71
2021/06/13 00:40:43;;;;;;;4.40;4.00;;;;;;;;;;5067330;28;20148;-71
2021/06/13 00:43:09;;;;;;;4.05;3.63;;;;;;;;;;5065650;28;20060;-71
2021/06/13 00:45:35;;;;;;;3.70;3.38;;;;;;;;;;5067439;28;20048;-71
2021/06/13 00:48:01;;;;;;;4.00;3.67;;;;;;;;;;5067101;28;20169;-71
2021/06/13 00:50:32;;;;;;;3.30;3.00;;;;;;;;;;5067389;28;20063;-71
2021/06/13 00:52:59;;;;;;;3.50;3.20;;;;;;;;;;5065878;28;20143;-71
2021/06/13 00:55:26;;;;;;;4.25;3.90;;;;;;;;;;5067463;28;20056;-71
2021/06/13 00:57:52;;;;;;;4.28;3.83;;;;;;;;;;5066944;28;20055;-71
2021/06/13 01:00:19;;;;;;;3.67;3.38;;;;;;;;;;5066976;28;20078;-71
2021/06/13 01:02:45;;;;;;;4.05;3.30;;;;;;;;;;5065665;28;20195;-71
2021/06/13 01:05:11;;;;;;;4.03;3.65;;;;;;;;;;5066611;28;20199;-71
2021/06/13 01:07:57;;;;;;;2.83;2.63;;;;;;;;;;5067329;28;20041;-71
2021/06/13 01:10:43;;;;;;;3.83;3.53;;;;;;;;;;5065784;28;20135;-71
2021/06/13 01:13:29;;;;;;;4.38;4.00;;;;;;;;;;5049485;28;20048;-71
2021/06/13 01:16:03;;;;;;;4.60;4.18;;;;;;;;;;5065514;28;20409;-71
2021/06/13 01:18:33;;;;;;;3.72;3.42;;;;;;;;;;5067235;28;20049;-71
2021/06/13 01:21:03;;;;;;;4.72;3.55;;;;;;;;;;5066651;28;20139;-71
2021/06/13 01:23:44;;;;;;;4.15;3.85;;;;;;;;;;5070038;28;20808;-71
2021/06/13 01:26:30;;;;;;;3.65;3.35;;;;;;;;;;5069229;28;20114;-71
2021/06/13 01:29:08;;;;;;;3.30;3.10;;;;;;;;;;5069716;28;20131;-71
2021/06/13 01:31:39;;;;;;;3.42;3.13;;;;;;;;;;5069604;28;20044;-71
2021/06/13 01:34:09;;;;;;;4.90;4.50;;;;;;;;;;5067023;28;20589;-71
2021/06/13 01:36:36;;;;;;;3.58;3.25;;;;;;;;;;5070720;28;20051;-71
2021/06/13 01:39:03;;;;;;;3.60;3.30;;;;;;;;;;5070430;28;20519;-71
2021/06/13 01:41:32;;;;;;;3.33;3.03;;;;;;;;;;5070655;28;20059;-70
2021/06/13 01:43:58;;;;;;;3.25;3.00;;;;;;;;;;5069050;28;20040;-71
2021/06/13 01:46:25;;;;;;;3.58;3.35;;;;;;;;;;5070714;28;20113;-71
2021/06/13 01:48:52;;;;;;;3.58;3.30;;;;;;;;;;5070453;28;20063;-71
2021/06/13 01:51:19;;;;;;;4.35;3.95;;;;;;;;;;5070117;28;20049;-71
2021/06/13 01:53:45;;;;;;;3.42;3.22;;;;;;;;;;5069407;28;20130;-71
2021/06/13 01:56:15;;;;;;;4.05;3.75;;;;;;;;;;5069807;28;20063;-71
2021/06/13 01:58:44;;;;;;;4.53;4.13;;;;;;;;;;5070499;28;20048;-71
2021/06/13 02:01:12;;;;;;;3.47;3.17;;;;;;;;;;5068581;28;20048;-71
2021/06/13 02:03:41;;;;;;;4.18;3.88;;;;;;;;;;5069045;28;20044;-71
2021/06/13 02:06:08;;;;;;;4.07;3.60;;;;;;;;;;5069743;28;20040;-71
2021/06/13 02:08:34;;;;;;;4.32;4.03;;;;;;;;;;5070175;28;21076;-71
2021/06/13 02:11:03;;;;;;;3.45;3.20;;;;;;;;;;5069557;28;20044;-71
2021/06/13 02:13:29;;;;;;;3.53;3.30;;;;;;;;;;5069019;28;20453;-71
2021/06/13 02:15:56;;;;;;;4.05;3.75;;;;;;;;;;5069784;28;20053;-71
2021/06/13 02:18:24;;;;;;;4.03;3.65;;;;;;;;;;5070579;28;20044;-71
2021/06/13 02:20:50;;;;;;;3.95;3.65;;;;;;;;;;5069604;28;20550;-71
2021/06/13 02:23:17;;;;;;;5.05;4.65;;;;;;;;;;5069174;28;20056;-71
2021/06/13 02:25:43;;;;;;;4.53;3.72;;;;;;;;;;5070655;28;20040;-71
2021/06/13 02:28:10;;;;;;;4.60;4.30;;;;;;;;;;5069561;28;20091;-71
2021/06/13 02:30:40;;;;;;;4.88;4.47;;;;;;;;;;5069325;28;20434;-71
2021/06/13 02:33:07;;;;;;;3.80;3.47;;;;;;;;;;5067467;28;20056;-71
2021/06/13 02:35:34;;;;;;;4.40;4.00;;;;;;;;;;5069357;28;20037;-71
2021/06/13 02:38:01;;;;;;;4.25;3.90;;;;;;;;;;5069209;28;20048;-71
2021/06/13 02:40:28;;;;;;;3.83;3.53;;;;;;;;;;5069693;28;20051;-71
2021/06/13 02:42:54;;;;;;;3.53;3.22;;;;;;;;;;5067851;28;20055;-71
2021/06/13 02:45:24;;;;;;;3.85;3.55;;;;;;;;;;5069633;28;20261;-71
2021/06/13 02:47:50;;;;;;;4.05;3.72;;;;;;;;;;5069781;28;20056;-71
2021/06/13 02:50:17;;;;;;;3.47;3.22;;;;;;;;;;5069281;28;20087;-71
2021/06/13 02:53:03;;;;;;;3.70;3.40;;;;;;;;;;5068847;28;20540;-71
2021/06/13 02:55:49;;;;;;;4.00;3.22;;;;;;;;;;5049509;28;20143;-71
2021/06/13 02:58:21;;;;;;;3.75;3.42;;;;;;;;;;5048962;28;20095;-71
2021/06/13 03:00:49;;;;;;;3.73;3.43;;;;;;;;;;5048550;28;20103;-71
2021/06/13 03:03:18;;;;;;;3.50;3.20;;;;;;;;;;5047906;28;20052;-71
2021/06/13 03:05:45;;;;;;;3.63;3.33;;;;;;;;;;5048799;28;20049;-71
2021/06/13 03:08:13;;;;;;;4.75;4.35;;;;;;;;;;5048576;28;20499;-71
2021/06/13 03:10:39;;;;;;;4.25;3.85;;;;;;;;;;5049078;28;20064;-71
2021/06/13 03:13:06;;;;;;;3.95;3.65;;;;;;;;;;5047128;28;20419;-71
2021/06/13 03:15:32;;;;;;;4.55;4.15;;;;;;;;;;5049169;28;20041;-71
2021/06/13 03:18:00;;;;;;;4.07;3.78;;;;;;;;;;5048343;28;20140;-71
2021/06/13 03:20:26;;;;;;;3.67;3.38;;;;;;;;;;5048431;28;20069;-71
2021/06/13 03:22:53;;;;;;;3.58;3.28;;;;;;;;;;5047396;28;20582;-71
2021/06/13 03:25:19;;;;;;;3.17;2.97;;;;;;;;;;5049025;28;20140;-71
2021/06/13 03:27:46;;;;;;;3.35;3.15;;;;;;;;;;5048563;28;20059;-71
2021/06/13 03:30:12;;;;;;;3.70;3.40;;;;;;;;;;5047824;28;20216;-71
2021/06/13 03:32:39;;;;;;;4.97;3.00;;;;;;;;;;5046786;28;20550;-71
2021/06/13 03:35:06;;;;;;;4.35;4.05;;;;;;;;;;5047589;28;20053;-71
2021/06/13 03:37:33;;;;;;;4.38;3.95;;;;;;;;;;5048508;28;20048;-71
2021/06/13 03:40:01;;;;;;;3.97;3.20;;;;;;;;;;5047972;28;20036;-71
2021/06/13 03:42:27;;;;;;;4.43;4.03;;;;;;;;;;5048226;28;20551;-71
2021/06/13 03:44:54;;;;;;;4.18;3.78;;;;;;;;;;5047034;28;20045;-71
2021/06/13 03:47:21;;;;;;;4.00;3.70;;;;;;;;;;5048655;28;20041;-71
2021/06/13 03:49:48;;;;;;;3.95;3.65;;;;;;;;;;5048420;28;20539;-71
2021/06/13 03:52:16;;;;;;;3.17;2.95;;;;;;;;;;5047509;28;20550;-71
2021/06/13 03:54:42;;;;;;;3.47;3.17;;;;;;;;;;5064241;28;20507;-71
2021/06/13 03:57:08;;;;;;;4.03;3.65;;;;;;;;;;5067339;28;20056;-71
2021/06/13 03:59:36;;;;;;;3.92;3.63;;;;;;;;;;5068044;28;20580;-71
2021/06/13 04:02:03;;;;;;;3.65;3.38;;;;;;;;;;5066079;28;20095;-71
2021/06/13 04:04:35;;;;;;;3.80;3.50;;;;;;;;;;5067321;28;20506;-71
2021/06/13 04:07:01;;;;;;;3.53;3.28;;;;;;;;;;5067476;28;20515;-71
2021/06/13 04:09:27;;;;;;;3.85;3.55;;;;;;;;;;5068299;28;20052;-71
2021/06/13 04:11:54;;;;;;;4.03;3.72;;;;;;;;;;5066928;28;20237;-71
2021/06/13 04:14:20;;;;;;;3.45;3.22;;;;;;;;;;5067269;28;20052;-71
2021/06/13 04:16:47;;;;;;;3.53;3.22;;;;;;;;;;5068215;28;20041;-71
2021/06/13 04:19:15;;;;;;;3.92;3.58;;;;;;;;;;5067484;28;20056;-71
2021/06/13 04:21:41;;;;;;;5.20;4.25;;;;;;;;;;5067595;28;20044;-71
2021/06/13 04:24:10;;;;;;;3.85;3.55;;;;;;;;;;5066638;28;20540;-71
2021/06/13 04:26:37;;;;;;;4.57;4.18;;;;;;;;;;5068064;28;20463;-71
2021/06/13 04:29:03;;;;;;;3.80;3.50;;;;;;;;;;5067048;28;20055;-71
2021/06/13 04:31:30;;;;;;;3.72;3.42;;;;;;;;;;5066711;28;20040;-71
2021/06/13 04:33:57;;;;;;;4.55;4.25;;;;;;;;;;5066425;28;20045;-71
2021/06/13 04:36:23;;;;;;;4.18;3.88;;;;;;;;;;5067839;28;20079;-71
2021/06/13 04:38:49;;;;;;;3.90;3.60;;;;;;;;;;5067778;28;20056;-71
2021/06/13 04:41:16;;;;;;;4.45;4.13;;;;;;;;;;5067727;28;20095;-71
2021/06/13 04:43:42;;;;;;;4.03;3.63;;;;;;;;;;5067306;28;20521;-71
2021/06/13 04:46:13;;;;;;;3.92;3.63;;;;;;;;;;5067296;28;21269;-71
2021/06/13 04:48:40;;;;;;;4.32;3.97;;;;;;;;;;5068276;28;20053;-71
2021/06/13 04:51:08;;;;;;;3.33;3.10;;;;;;;;;;5067411;28;20068;-71
2021/06/13 04:53:54;;;;;;;3.70;3.40;;;;;;;;;;5067292;28;20126;-71
2021/06/13 04:56:26;;;;;;;4.22;3.83;;;;;;;;;;5070167;28;20053;-71
2021/06/13 04:58:52;;;;;;;4.30;4.00;;;;;;;;;;5071100;28;20056;-71
2021/06/13 05:01:18;;;;;;;4.82;4.43;;;;;;;;;;5070633;28;20524;-71
2021/06/13 05:03:44;;;;;;;4.15;3.60;;;;;;;;;;5070919;28;20083;-71
2021/06/13 05:06:10;;;;;;;5.07;4.57;;;;;;;;;;5070934;28;20049;-71
2021/06/13 05:08:37;;;;;;;4.75;3.65;;;;;;;;;;5071539;28;20056;-71
2021/06/13 05:11:03;;;;;;;4.22;3.92;;;;;;;;;;5070425;28;20043;-71
2021/06/13 05:13:29;;;;;;;4.60;4.30;;;;;;;;;;5070651;28;20040;-71
2021/06/13 05:15:55;;;;;;;3.53;3.22;;;;;;;;;;5070534;28;20098;-71
2021/06/13 05:18:21;;;;;;;3.97;3.53;;;;;;;;;;5071642;28;20114;-71
2021/06/13 05:20:52;;;;;;;4.93;4.50;;;;;;;;;;5071255;28;20084;-71
2021/06/13 05:23:19;;;;;;;3.95;3.65;;;;;;;;;;5068601;28;20491;-71
2021/06/13 05:25:45;;;;;;;4.35;3.80;;;;;;;;;;5071138;28;20556;-71
2021/06/13 05:28:11;;;;;;;5.53;5.00;;;;;;;;;;5070911;28;20047;-71
2021/06/13 05:30:38;;;;;;;5.68;5.18;;;;;;;;;;5070484;28;20052;-70
2021/06/13 05:33:04;;;;;;;4.53;4.22;;;;;;;;;;5069386;28;20474;-70
2021/06/13 05:35:30;;;;;;;5.47;4.50;;;;;;;;;;5070739;28;20060;-71
2021/06/13 05:37:56;;;;;;;4.72;4.20;;;;;;;;;;5070040;28;20529;-71
2021/06/13 05:40:23;;;;;;;5.18;4.78;;;;;;;;;;5070919;28;20055;-71
2021/06/13 05:42:49;;;;;;;5.25;3.92;;;;;;;;;;5069831;28;20080;-71
2021/06/13 05:45:17;;;;;;;3.65;3.33;;;;;;;;;;5070632;28;20098;-71
2021/06/13 05:47:43;;;;;;;3.80;3.50;;;;;;;;;;5070807;28;20083;-72
2021/06/13 05:50:10;;;;;;;4.30;3.67;;;;;;;;;;5070287;28;20052;-72
2021/06/13 05:52:36;;;;;;;4.43;4.03;;;;;;;;;;5070181;28;20059;-71
2021/06/13 05:55:03;;;;;;;4.95;3.88;;;;;;;;;;5070019;28;20056;-71
2021/06/13 05:57:32;;;;;;;4.75;4.35;;;;;;;;;;5070481;28;20067;-71
2021/06/13 05:59:59;;;;;;;3.45;3.15;;;;;;;;;;5069563;28;20048;-71
2021/06/13 06:02:25;;;;;;;5.72;4.05;;;;;;;;;;5068924;28;20270;-71
2021/06/13 06:04:51;;;;;;;4.03;3.72;;;;;;;;;;5069803;28;20143;-71
2021/06/13 06:07:18;;;;;;;5.03;4.03;;;;;;;;;;5069686;28;20045;-71
2021/06/13 06:09:44;;;;;;;3.53;3.20;;;;;;;;;;5070307;28;20040;-72
2021/06/13 06:12:11;;;;;;;4.32;3.95;;;;;;;;;;5069090;28;20056;-71
2021/06/13 06:14:37;;;;;;;3.97;3.67;;;;;;;;;;5070258;28;20032;-71
2021/06/13 06:17:03;;;;;;;4.35;3.95;;;;;;;;;;5069874;28;20175;-71
2021/06/13 06:19:29;;;;;;;3.65;3.35;;;;;;;;;;5052422;28;20447;-71
2021/06/13 06:21:56;;;;;;;4.57;4.18;;;;;;;;;;5069444;28;20076;-71
2021/06/13 06:24:22;;;;;;;4.25;3.88;;;;;;;;;;5069847;28;20127;-71
2021/06/13 06:26:49;;;;;;;3.25;3.05;;;;;;;;;;5070200;28;20422;-71
2021/06/13 06:29:15;;;;;;;4.72;3.95;;;;;;;;;;5069524;28;20434;-71
2021/06/13 06:31:41;;;;;;;3.63;3.42;;;;;;;;;;5068046;28;20056;-71
2021/06/13 06:34:07;;;;;;;3.78;3.45;;;;;;;;;;5068157;28;20060;-71
2021/06/13 06:36:34;;;;;;;5.35;4.85;;;;;;;;;;5069385;28;20052;-71
2021/06/13 06:39:00;;;;;;;3.60;3.40;;;;;;;;;;5069266;28;20507;-71
2021/06/13 06:41:26;;;;;;;3.58;3.28;;;;;;;;;;5069740;28;20047;-71
2021/06/13 06:43:52;;;;;;;4.20;3.80;;;;;;;;;;5068808;28;20052;-71
2021/06/13 06:46:19;;;;;;;4.00;3.70;;;;;;;;;;5069623;28;20489;-71
2021/06/13 06:48:45;;;;;;;3.78;3.47;;;;;;;;;;5069583;28;20506;-71
2021/06/13 06:51:11;;;;;;;4.70;3.95;;;;;;;;;;5069107;28;20060;-72
2021/06/13 06:53:40;;;;;;;4.00;3.70;;;;;;;;;;5068590;28;20334;-71
2021/06/13 06:56:06;;;;;;;4.07;3.70;;;;;;;;;;5068899;28;20049;-71
2021/06/13 06:58:32;;;;;;;3.45;3.15;;;;;;;;;;5069303;28;20078;-71
2021/06/13 07:00:58;;;;;;;5.93;3.25;;;;;;;;;;5067890;28;20106;-71
2021/06/13 07:03:24;;;;;;;4.25;3.90;;;;;;;;;;5068515;28;20059;-71
2021/06/13 07:05:50;;;;;;;3.90;3.58;;;;;;;;;;5068891;28;20044;-71
2021/06/13 07:08:16;;;;;;;3.90;3.55;;;;;;;;;;5069217;28;20083;-71
2021/06/13 07:10:42;;;;;;;3.42;3.22;;;;;;;;;;5068910;28;20053;-71
2021/06/13 07:13:09;;;;;;;4.07;3.78;;;;;;;;;;5067599;28;20920;-71
2021/06/13 07:15:35;;;;;;;3.80;3.50;;;;;;;;;;5069308;28;20410;-71
2021/06/13 07:18:01;;;;;;;4.03;3.72;;;;;;;;;;5068265;28;20048;-71
2021/06/13 07:20:27;;;;;;;4.03;3.72;;;;;;;;;;5067639;28;20052;-71
2021/06/13 07:22:54;;;;;;;4.15;3.75;;;;;;;;;;5067577;28;20052;-71
2021/06/13 07:25:20;;;;;;;2.72;2.53;;;;;;;;;;5068560;28;20045;-71
2021/06/13 07:27:46;;;;;;;2.78;2.58;;;;;;;;;;5068839;28;20128;-71
2021/06/13 07:30:14;;;;;;;3.78;3.47;;;;;;;;;;5068265;28;20048;-71
2021/06/13 07:32:40;;;;;;;4.63;4.22;;;;;;;;;;5030942;28;20127;-71
2021/06/13 07:35:07;;;;;;;3.67;3.40;;;;;;;;;;5068074;28;20047;-71
2021/06/13 07:37:33;;;;;;;4.38;4.07;;;;;;;;;;5068275;28;20055;-71
2021/06/13 07:39:59;;;;;;;3.83;3.15;;;;;;;;;;5067819;28;20044;-71
2021/06/13 07:42:25;;;;;;;3.90;3.63;;;;;;;;;;5068056;28;20052;-71
2021/06/13 07:44:51;;;;;;;3.35;3.13;;;;;;;;;;5067988;28;20488;-71
2021/06/13 07:47:18;;;;;;;4.65;4.10;;;;;;;;;;5068596;28;20099;-71
2021/06/13 07:49:45;;;;;;;6.07;3.53;;;;;;;;;;5068458;28;20091;-71
2021/06/13 07:52:11;;;;;;;4.05;3.75;;;;;;;;;;5067331;28;20494;-71
2021/06/13 07:54:37;;;;;;;4.03;3.22;;;;;;;;;;5068421;28;20068;-71
2021/06/13 07:57:04;;;;;;;4.43;4.03;;;;;;;;;;5067662;28;20052;-71
2021/06/13 07:59:30;;;;;;;2.35;2.25;;;;;;;;;;5068631;28;20056;-71
2021/06/13 08:01:56;;;;;;;3.83;3.53;;;;;;;;;;5063510;28;20465;-71
2021/06/13 08:04:22;;;;;;;4.18;3.78;;;;;;;;;;5066761;28;20058;-71
2021/06/13 08:06:48;;;;;;;4.75;4.18;;;;;;;;;;5067303;28;20503;-71
2021/06/13 08:09:14;;;;;;;3.22;2.92;;;;;;;;;;5066979;28;20051;-71
2021/06/13 08:11:41;;;;;;;2.72;2.53;;;;;;;;;;5066984;28;20084;-71
2021/06/13 08:14:07;;;;;;;3.95;2.95;;;;;;;;;;5065651;28;20056;-71
2021/06/13 08:16:33;;;;;;;3.38;3.03;;;;;;;;;;5067463;28;20048;-71
2021/06/13 08:18:59;;;;;;;4.85;3.80;;;;;;;;;;5066387;28;20420;-71
2021/06/13 08:21:25;;;;;;;2.72;2.53;;;;;;;;;;5067028;28;20083;-71
2021/06/13 08:23:51;;;;;;;3.60;3.40;;;;;;;;;;5065550;28;20064;-71
2021/06/13 08:26:17;;;;;;;4.43;4.10;;;;;;;;;;5067169;28;20051;-71
2021/06/13 08:28:43;;;;;;;3.58;3.30;;;;;;;;;;5067044;28;20415;-71
2021/06/13 08:31:10;;;;;;;2.58;2.38;;;;;;;;;;5064940;28;20052;-71
2021/06/13 08:33:36;;;;;;;3.05;2.83;;;;;;;;;;5065897;28;20055;-71
2021/06/13 08:36:02;;;;;;;3.15;2.90;;;;;;;;;;5066009;28;20044;-71
2021/06/13 08:38:28;;;;;;;3.28;3.03;;;;;;;;;;5067269;28;20151;-71
2021/06/13 08:40:54;;;;;;;2.90;2.67;;;;;;;;;;5066686;28;20048;-71
2021/06/13 08:43:20;;;;;;;3.60;3.30;;;;;;;;;;5066660;28;20044;-71
2021/06/13 08:45:46;;;;;;;2.90;2.70;;;;;;;;;;5067806;28;20052;-71
2021/06/13 08:48:13;;;;;;;3.20;3.00;;;;;;;;;;5067100;28;20415;-71
2021/06/13 08:50:40;;;;;;;3.28;3.05;;;;;;;;;;5067488;28;20052;-71
2021/06/13 08:53:06;;;;;;;2.92;2.72;;;;;;;;;;5066061;28;20088;-71
2021/06/13 08:55:32;;;;;;;4.05;3.35;;;;;;;;;;5067381;28;20438;-71
2021/06/13 08:57:58;;;;;;;3.45;3.15;;;;;;;;;;5067119;28;20103;-71
2021/06/13 09:00:26;;;;;;;2.70;2.50;;;;;;;;;;5067222;28;20131;-71
2021/06/13 09:02:53;;;;;;;3.35;3.05;;;;;;;;;;5065428;28;20483;-71
2021/06/13 09:05:22;;;;;;;3.50;3.20;;;;;;;;;;5067206;28;20040;-71
2021/06/13 09:07:56;;;;;;;4.80;3.50;;;;;;;;;;5067687;28;20052;-71
2021/06/13 09:10:25;;;;;;;4.28;3.85;;;;;;;;;;5067085;28;20521;-71
2021/06/13 09:12:52;;;;;;;3.60;3.30;;;;;;;;;;5065974;28;20526;-71
2021/06/13 09:15:18;;;;;;;4.07;3.75;;;;;;;;;;5067468;28;20113;-71
2021/06/13 09:17:44;;;;;;;3.08;2.63;;;;;;;;;;5067330;28;20055;-71
2021/06/13 09:20:19;;;;;;;3.13;2.92;;;;;;;;;;5066848;28;20462;-71
2021/06/13 09:23:03;;;;;;;3.33;3.13;;;;;;;;;;5066942;28;20514;-71
2021/06/13 09:25:30;;;;;;;4.32;3.65;;;;;;;;;;5067036;28;20345;-71
2021/06/13 09:28:07;;;;;;;3.45;2.80;;;;;;;;;;5066852;28;20040;-71
2021/06/13 09:30:34;;;;;;;3.80;3.42;;;;;;;;;;5066371;28;20473;-71
2021/06/13 09:33:02;;;;;;;4.18;3.88;;;;;;;;;;5065087;28;20049;-71
2021/06/13 09:35:30;;;;;;;5.28;3.92;;;;;;;;;;5066884;28;20102;-70
2021/06/13 09:38:06;;;;;;;3.50;3.20;;;;;;;;;;5066849;28;20048;-70
2021/06/13 09:40:32;;;;;;;4.22;3.83;;;;;;;;;;5067078;28;20061;-70
2021/06/13 09:43:00;;;;;;;3.63;3.33;;;;;;;;;;5067252;28;20052;-70
2021/06/13 09:45:26;;;;;;;4.30;3.83;;;;;;;;;;5070747;28;20414;-70
2021/06/13 09:48:02;;;;;;;4.63;4.20;;;;;;;;;;5070654;28;20049;-70
2021/06/13 09:50:35;;;;;;;4.55;4.25;;;;;;;;;;5070741;28;20048;-70
2021/06/13 09:53:19;;;;;;;3.83;3.42;;;;;;;;;;5069012;28;20054;-70
2021/06/13 09:55:45;;;;;;;3.50;3.20;;;;;;;;;;5069492;28;20048;-71
2021/06/13 09:58:14;;;;;;;6.03;3.92;;;;;;;;;;5070224;28;20110;-71
2021/06/13 10:00:40;;;;;;;3.70;3.40;;;;;;;;;;5070067;28;20080;-71
2021/06/13 10:03:20;;;;;;;4.28;3.88;;;;;;;;;;5068668;28;20524;-70
2021/06/13 10:05:54;;;;;;;5.38;4.07;;;;;;;;;;5051223;28;20045;-71
2021/06/13 10:08:20;;;;;;;3.20;3.00;;;;;;;;;;5070435;28;20044;-71
2021/06/13 10:10:46;;;;;;;3.40;2.88;;;;;;;;;;5070092;28;20288;-71
2021/06/13 10:13:13;;;;;;;3.47;3.17;;;;;;;;;;5068094;28;20465;-71
2021/06/13 10:15:39;;;;;;;4.78;3.85;;;;;;;;;;5070222;28;20135;-71
2021/06/13 10:18:10;;;;;;;4.55;3.47;;;;;;;;;;5069517;28;20060;-71
2021/06/13 10:20:36;;;;;;;2.95;2.75;;;;;;;;;;5069873;28;20179;-71
2021/06/13 10:23:04;;;;;;;3.15;2.85;;;;;;;;;;5068491;28;20135;-71
2021/06/13 10:25:30;;;;;;;4.53;4.13;;;;;;;;;;5069919;28;20469;-71
2021/06/13 10:27:58;;;;;;;3.90;3.60;;;;;;;;;;5069538;28;20070;-70
2021/06/13 10:30:24;;;;;;;3.30;3.00;;;;;;;;;;5069211;28;20139;-70
2021/06/13 10:32:50;;;;;;;3.55;3.25;;;;;;;;;;5067859;28;20044;-70
2021/06/13 10:35:16;;;;;;;3.30;3.03;;;;;;;;;;5069244;28;20106;-70
2021/06/13 10:37:42;;;;;;;3.60;3.25;;;;;;;;;;5069771;28;20475;-70
2021/06/13 10:40:09;;;;;;;3.97;3.67;;;;;;;;;;5069298;28;20094;-70
2021/06/13 10:42:38;;;;;;;4.28;3.88;;;;;;;;;;5068506;28;20576;-70
2021/06/13 10:45:04;;;;;;;4.35;3.83;;;;;;;;;;5069059;28;20571;-70
2021/06/13 10:47:32;;;;;;;3.05;2.85;;;;;;;;;;5069857;28;20052;-71
2021/06/13 10:50:08;;;;;;;3.13;2.83;;;;;;;;;;5069128;28;20562;-71
2021/06/13 10:52:35;;;;;;;2.80;2.60;;;;;;;;;;5067329;28;20110;-71
2021/06/13 10:55:02;;;;;;;3.08;2.78;;;;;;;;;;5068920;28;20049;-71
2021/06/13 10:57:33;;;;;;;3.40;3.10;;;;;;;;;;5069640;28;20110;-71
2021/06/13 11:00:00;;;;;;;2.50;2.30;;;;;;;;;;5068370;28;20203;-71
2021/06/13 11:02:27;;;;;;;4.10;2.80;;;;;;;;;;5067664;28;20059;-71
2021/06/13 11:05:00;;;;;;;4.88;3.03;;;;;;;;;;5068129;28;20599;-71
2021/06/13 11:07:46;;;;;;;3.35;3.08;;;;;;;;;;5069244;28;21735;-71
2021/06/13 11:10:16;;;;;;;2.88;2.67;;;;;;;;;;5068479;28;20044;-71
2021/06/13 11:13:02;;;;;;;3.33;3.03;;;;;;;;;;5068333;28;20044;-71
2021/06/13 11:15:47;;;;;;;3.08;2.88;;;;;;;;;;5069344;28;20044;-71
2021/06/13 11:18:26;;;;;;;4.00;3.70;;;;;;;;;;5067805;28;20056;-71
2021/06/13 11:21:09;;;;;;;3.58;3.20;;;;;;;;;;5068207;28;20049;-71
2021/06/13 11:23:40;;;;;;;3.50;3.20;;;;;;;;;;5067999;28;20099;-71
2021/06/13 11:26:11;;;;;;;2.80;2.60;;;;;;;;;;5068857;28;20442;-71
2021/06/13 11:28:49;;;;;;;4.38;3.90;;;;;;;;;;5067501;28;20044;-71
2021/06/13 11:31:18;;;;;;;2.88;2.67;;;;;;;;;;5067287;28;20098;-71
2021/06/13 11:33:47;;;;;;;2.97;2.67;;;;;;;;;;5067764;28;20519;-71
2021/06/13 11:36:27;;;;;;;4.50;3.30;;;;;;;;;;5067774;28;20094;-71
2021/06/13 11:38:54;;;;;;;3.17;2.92;;;;;;;;;;5068292;28;20049;-71
2021/06/13 11:41:28;;;;;;;4.03;3.65;;;;;;;;;;5068409;28;20110;-71
2021/06/13 11:43:54;;;;;;;3.30;3.05;;;;;;;;;;5067073;28;20052;-71
2021/06/13 11:46:40;;;;;;;3.13;2.92;;;;;;;;;;5068627;28;20064;-71
2021/06/13 11:49:07;;;;;;;5.82;4.07;;;;;;;;;;5068215;28;20507;-71
2021/06/13 11:51:48;;;;;;;3.45;3.25;;;;;;;;;;5067932;28;20110;-71
2021/06/13 11:54:34;;;;;;;3.65;3.35;;;;;;;;;;5067276;28;20046;-71
2021/06/13 11:57:01;;;;;;;3.20;3.00;;;;;;;;;;5066547;28;20082;-71
2021/06/13 11:59:27;;;;;;;3.40;3.10;;;;;;;;;;5068305;28;20054;-71
2021/06/13 12:01:55;;;;;;;3.95;3.65;;;;;;;;;;5066520;28;20113;-71
2021/06/13 12:04:22;;;;;;;5.25;3.42;;;;;;;;;;5067381;28;20101;-71
2021/06/13 12:06:49;;;;;;;4.13;2.85;;;;;;;;;;5067957;28;20052;-71
2021/06/13 12:09:16;;;;;;;3.95;3.22;;;;;;;;;;5067737;28;20098;-71
2021/06/13 12:11:45;;;;;;;3.20;3.00;;;;;;;;;;5067316;28;20048;-71
2021/06/13 12:14:24;;;;;;;3.28;2.97;;;;;;;;;;5065288;28;20159;-71
2021/06/13 12:16:51;;;;;;;3.80;3.53;;;;;;;;;;5066973;28;20467;-71
2021/06/13 12:19:25;;;;;;;3.33;3.10;;;;;;;;;;5067937;28;20044;-71
2021/06/13 12:21:51;;;;;;;4.20;3.90;;;;;;;;;;5067135;28;20052;-71
2021/06/13 12:27:21;;;;;;;4.53;3.47;;;;;;;;;;5067032;28;20056;-71
2021/06/13 12:27:22;;;;;;;3.90;2.92;;;;;;;;;;5067391;28;20136;-71
2021/06/13 12:29:49;;;;;;;3.08;2.78;;;;;;;;;;5068168;28;20049;-71
2021/06/13 12:32:17;;;;;;;3.67;3.03;;;;;;;;;;5065401;28;20044;-71
2021/06/13 12:34:46;;;;;;;2.78;2.58;;;;;;;;;;5065319;28;20060;-71
2021/06/13 12:37:19;;;;;;;3.88;3.15;;;;;;;;;;5067590;28;20056;-71
2021/06/13 12:39:56;;;;;;;3.42;3.00;;;;;;;;;;5066436;28;20143;-71
2021/06/13 12:42:22;;;;;;;3.08;2.78;;;;;;;;;;5066304;28;20072;-71
2021/06/13 12:44:57;;;;;;;3.42;3.15;;;;;;;;;;5067330;28;20052;-71
2021/06/13 12:47:23;;;;;;;3.17;2.97;;;;;;;;;;5067813;28;20055;-71
2021/06/13 12:49:49;;;;;;;3.50;3.13;;;;;;;;;;5067746;28;20139;-71
2021/06/13 12:52:17;;;;;;;3.72;3.42;;;;;;;;;;5066954;28;20213;-71
2021/06/13 12:54:44;;;;;;;2.90;2.70;;;;;;;;;;5067286;28;20052;-71
2021/06/13 12:57:11;;;;;;;3.15;2.92;;;;;;;;;;5066980;28;20994;-71
2021/06/13 12:59:38;;;;;;;3.67;3.35;;;;;;;;;;5067692;28;20548;-71
2021/06/13 13:02:08;;;;;;;3.17;2.85;;;;;;;;;;5065431;28;20094;-71
2021/06/13 13:04:41;;;;;;;4.40;3.00;;;;;;;;;;5066583;28;20492;-71
2021/06/13 13:07:08;;;;;;;3.30;3.03;;;;;;;;;;5067040;28;20079;-71
2021/06/13 13:09:34;;;;;;;3.42;2.90;;;;;;;;;;5067439;28;20033;-71
2021/06/13 13:12:00;;;;;;;2.92;2.50;;;;;;;;;;5066114;28;20601;-71
2021/06/13 13:14:26;;;;;;;2.92;2.72;;;;;;;;;;5066561;28;20053;-71
2021/06/13 13:16:53;;;;;;;3.70;3.28;;;;;;;;;;5067189;28;20048;-71
2021/06/13 13:19:30;;;;;;;3.10;2.80;;;;;;;;;;5071712;28;20051;-71
2021/06/13 13:21:56;;;;;;;3.53;3.28;;;;;;;;;;5070423;28;20415;-71
2021/06/13 13:24:33;;;;;;;2.35;2.15;;;;;;;;;;5070496;28;20059;-71
2021/06/13 13:27:07;;;;;;;2.75;2.55;;;;;;;;;;5070564;28;20483;-71
2021/06/13 13:29:47;;;;;;;3.30;3.00;;;;;;;;;;5071294;28;20048;-71
2021/06/13 13:32:14;;;;;;;3.15;2.90;;;;;;;;;;5068632;28;20045;-71
2021/06/13 13:34:40;;;;;;;2.78;2.58;;;;;;;;;;5070111;28;20056;-71
2021/06/13 13:37:09;;;;;;;2.90;2.70;;;;;;;;;;5070236;28;20580;-71
2021/06/13 13:39:36;;;;;;;2.63;2.42;;;;;;;;;;5068696;28;20044;-71
2021/06/13 13:42:03;;;;;;;3.10;2.90;;;;;;;;;;5069247;28;20514;-71
2021/06/13 13:44:30;;;;;;;3.13;2.85;;;;;;;;;;5070324;28;20057;-71
2021/06/13 13:47:06;;;;;;;3.40;2.85;;;;;;;;;;5070526;28;20072;-71
2021/06/13 13:49:33;;;;;;;3.30;3.00;;;;;;;;;;5070673;28;20084;-71
2021/06/13 13:52:00;;;;;;;3.53;3.22;;;;;;;;;;5069607;28;20137;-71
2021/06/13 13:54:31;;;;;;;1.98;1.88;;;;;;;;;;5069641;28;20059;-71
2021/06/13 13:56:59;;;;;;;2.90;2.70;;;;;;;;;;5068558;28;20071;-71
2021/06/13 13:59:25;;;;;;;2.80;2.60;;;;;;;;;;5068073;28;20110;-71
2021/06/13 14:01:52;;;;;;;3.13;2.90;;;;;;;;;;5067701;28;20040;-71
2021/06/13 14:04:18;;;;;;;2.30;2.20;;;;;;;;;;5069071;28;20098;-71
2021/06/13 14:06:44;;;;;;;2.80;2.60;;;;;;;;;;5070198;28;20117;-71
2021/06/13 14:09:10;;;;;;;3.33;3.13;;;;;;;;;;5069904;28;20144;-71
2021/06/13 14:11:36;;;;;;;2.45;2.25;;;;;;;;;;5069316;28;20053;-71
2021/06/13 14:14:03;;;;;;;2.78;2.55;;;;;;;;;;5068497;28;20052;-71
2021/06/13 14:16:29;;;;;;;3.55;3.33;;;;;;;;;;5070409;28;20048;-71
2021/06/13 14:18:55;;;;;;;4.25;2.92;;;;;;;;;;5069430;28;20136;-71
2021/06/13 14:21:22;;;;;;;3.13;2.83;;;;;;;;;;5069831;28;20043;-71
2021/06/13 14:23:48;;;;;;;3.90;2.95;;;;;;;;;;5069040;28;20048;-71
2021/06/13 14:26:14;;;;;;;2.88;2.67;;;;;;;;;;5069489;28;20103;-71
2021/06/13 14:28:40;;;;;;;3.67;2.53;;;;;;;;;;5069438;28;20531;-71
2021/06/13 14:31:06;;;;;;;3.30;3.05;;;;;;;;;;5067939;28;20175;-71
2021/06/13 14:33:33;;;;;;;3.25;2.95;;;;;;;;;;5068432;28;20087;-71
2021/06/13 14:36:00;;;;;;;3.47;2.80;;;;;;;;;;5068811;28;20052;-71
2021/06/13 14:38:26;;;;;;;3.10;2.90;;;;;;;;;;5069712;28;20048;-71
2021/06/13 14:40:52;;;;;;;2.90;2.70;;;;;;;;;;5069298;28;20119;-71
2021/06/13 14:43:18;;;;;;;2.55;2.35;;;;;;;;;;5068404;28;20511;-71
2021/06/13 14:45:44;;;;;;;3.88;3.00;;;;;;;;;;5070126;28;20511;-71
2021/06/13 14:48:11;;;;;;;2.13;2.03;;;;;;;;;;5069137;28;20384;-71
2021/06/13 14:50:37;;;;;;;3.28;2.97;;;;;;;;;;5069746;28;20051;-71